Time;durP1;ratioP1;P1;durP2;ratioP2;P2;SDS_P1;SDS_P2;PMS_P1;PMS_P2;Temp;Humidity;BMP_temperature;BMP_pressure;BME280_temperature;BME280_humidity;BME280_pressure;Samples;Min_cycle;Max_cycle;Signal;HPM_P1;HPM_P2
2022/03/24 00:00:38;;;;;;;5.40;3.55;;;;;;;16.85;43.80;100136.63;4902113;29;20071;-90
2022/03/24 00:03:05;;;;;;;5.05;3.60;;;;;;;16.84;44.10;100145.44;4902159;29;20025;-90
2022/03/24 00:05:31;;;;;;;5.88;3.55;;;;;;;16.85;43.71;100131.34;4903346;29;20359;-90
2022/03/24 00:07:56;;;;;;;6.32;3.80;;;;;;;16.85;44.02;100136.63;4904579;29;20036;-90
2022/03/24 00:10:23;;;;;;;5.53;3.80;;;;;;;16.85;44.08;100131.34;4902895;29;20332;-90
2022/03/24 00:12:51;;;;;;;5.63;3.60;;;;;;;16.87;44.13;100129.53;4901430;29;20036;-91
2022/03/24 00:15:17;;;;;;;5.22;3.22;;;;;;;16.85;44.07;100126.06;4901767;29;20035;-90
2022/03/24 00:17:43;;;;;;;6.80;3.70;;;;;;;16.85;44.13;100128.72;4901038;29;20052;-90
2022/03/24 00:20:11;;;;;;;5.50;3.80;;;;;;;16.85;43.67;100131.34;4905149;29;20039;-91
2022/03/24 00:22:37;;;;;;;5.93;3.78;;;;;;;16.85;43.97;100126.06;4905301;29;20036;-91
2022/03/24 00:25:04;;;;;;;5.45;3.53;;;;;;;16.85;43.95;100125.22;4904346;29;20029;-91
2022/03/24 00:27:30;;;;;;;5.95;3.63;;;;;;;16.85;43.88;100125.22;4901843;29;20036;-90
2022/03/24 00:29:55;;;;;;;5.70;3.50;;;;;;;16.85;43.88;100119.97;4903336;29;20104;-90
2022/03/24 00:32:21;;;;;;;5.88;4.05;;;;;;;16.85;43.86;100126.06;4904084;29;20079;-90
2022/03/24 00:34:46;;;;;;;6.15;3.75;;;;;;;16.85;44.04;100126.06;4905422;29;20024;-90
2022/03/24 00:37:12;;;;;;;6.88;4.20;;;;;;;16.85;44.08;100127.88;4901541;29;20067;-91
2022/03/24 00:39:40;;;;;;;5.78;3.30;;;;;;;16.85;43.85;100136.63;4903114;29;20471;-90
2022/03/24 00:42:11;;;;;;;5.50;3.72;;;;;;;16.84;43.96;100129.63;4900838;29;20478;-89
2022/03/24 00:44:38;;;;;;;5.05;3.40;;;;;;;16.85;43.86;100130.50;4899543;29;20029;-90
2022/03/24 00:47:04;;;;;;;5.20;3.45;;;;;;;16.85;44.04;100131.34;4898899;29;20044;-89
2022/03/24 00:49:31;;;;;;;5.60;3.53;;;;;;;16.85;43.83;100131.34;4899101;29;20052;-90
2022/03/24 00:51:56;;;;;;;6.05;4.13;;;;;;;16.85;44.02;100130.50;4902193;29;20056;-90
2022/03/24 00:54:22;;;;;;;6.22;3.58;;;;;;;16.84;44.01;100132.25;4905579;29;20044;-91
2022/03/24 00:56:48;;;;;;;5.75;3.75;;;;;;;16.84;44.14;100121.72;4909927;29;20025;-91
2022/03/24 00:59:14;;;;;;;5.20;3.63;;;;;;;16.85;44.17;100119.97;4908237;29;20514;-90
2022/03/24 01:01:41;;;;;;;6.82;4.10;;;;;;;16.84;43.94;100116.44;4909080;29;20052;-91
2022/03/24 01:04:07;;;;;;;5.50;3.28;;;;;;;16.84;43.92;100119.09;4908584;29;20029;-91
2022/03/24 01:06:34;;;;;;;6.15;3.70;;;;;;;16.84;43.94;100113.81;4907746;29;20103;-91
2022/03/24 01:09:05;;;;;;;5.35;3.97;;;;;;;16.84;43.98;100118.22;4906822;29;20103;-91
2022/03/24 01:11:31;;;;;;;5.72;3.92;;;;;;;16.83;44.03;100106.81;4913626;29;20028;-92
2022/03/24 01:13:57;;;;;;;7.05;4.05;;;;;;;16.84;44.02;100110.31;4916678;29;20037;-91
2022/03/24 01:16:23;;;;;;;5.80;4.05;;;;;;;16.85;43.81;100110.25;4915038;29;20067;-91
2022/03/24 01:18:52;;;;;;;5.20;3.30;;;;;;;16.82;44.09;100105.09;4914598;29;20088;-92
2022/03/24 01:21:17;;;;;;;5.22;3.58;;;;;;;16.83;44.12;100112.09;4912762;29;20033;-91
2022/03/24 01:23:45;;;;;;;4.85;3.47;;;;;;;16.84;43.77;100102.41;4913481;29;20025;-92
2022/03/24 01:26:11;;;;;;;6.30;3.53;;;;;;;16.82;43.81;100102.47;4913102;29;20085;-91
2022/03/24 01:28:37;;;;;;;5.97;3.88;;;;;;;16.83;43.95;100106.81;4913950;29;20009;-92
2022/03/24 01:31:03;;;;;;;7.65;4.25;;;;;;;16.83;43.96;100100.69;4913501;29;20052;-92
2022/03/24 01:33:29;;;;;;;6.97;3.72;;;;;;;16.82;43.78;100105.09;4914645;29;20033;-92
2022/03/24 01:35:54;;;;;;;5.97;4.05;;;;;;;16.83;43.96;100100.69;4914916;29;20024;-92
2022/03/24 01:38:21;;;;;;;6.07;4.13;;;;;;;16.82;44.12;100099.84;4916812;29;20095;-92
2022/03/24 01:40:47;;;;;;;5.50;3.63;;;;;;;16.80;43.82;100096.38;4915832;29;20064;-92
2022/03/24 01:43:14;;;;;;;6.80;4.28;;;;;;;16.81;44.16;100103.38;4917813;29;20084;-92
2022/03/24 01:45:41;;;;;;;6.63;3.70;;;;;;;16.80;43.82;100099.00;4900538;29;20077;-92
2022/03/24 01:48:08;;;;;;;6.55;4.07;;;;;;;16.81;43.79;100095.47;4915408;29;20451;-92
2022/03/24 01:50:39;;;;;;;6.13;4.00;;;;;;;16.81;43.84;100091.97;4908696;29;20032;-90
2022/03/24 01:53:05;;;;;;;6.28;4.13;;;;;;;16.82;43.97;100104.22;4909891;29;20028;-92
2022/03/24 01:55:32;;;;;;;5.35;3.92;;;;;;;16.81;43.93;100095.47;4909573;29;20088;-91
2022/03/24 01:57:57;;;;;;;4.97;3.70;;;;;;;16.80;43.88;100093.72;4910410;29;20138;-91
2022/03/24 02:00:23;;;;;;;5.22;3.92;;;;;;;16.80;44.00;100085.81;4911351;29;20032;-91
2022/03/24 02:02:50;;;;;;;6.18;4.35;;;;;;;16.81;44.41;100097.25;4912659;29;20047;-92
2022/03/24 02:05:16;;;;;;;6.18;4.40;;;;;;;16.80;44.03;100093.72;4916135;29;20036;-93
2022/03/24 02:07:42;;;;;;;6.22;3.95;;;;;;;16.80;44.10;100083.19;4917287;29;20108;-93
2022/03/24 02:10:09;;;;;;;6.07;3.88;;;;;;;16.78;43.96;100085.03;4917261;29;20035;-92
2022/03/24 02:12:35;;;;;;;6.63;4.10;;;;;;;16.80;44.36;100091.09;4917352;29;20133;-92
2022/03/24 02:15:01;;;;;;;6.20;4.10;;;;;;;16.78;44.05;100091.16;4897581;29;20040;-91
2022/03/24 02:17:30;;;;;;;5.97;3.72;;;;;;;16.79;43.87;100084.09;4911840;29;20059;-91
2022/03/24 02:19:58;;;;;;;6.10;4.22;;;;;;;16.79;44.53;100089.38;4915871;29;20032;-91
2022/03/24 02:22:27;;;;;;;5.38;4.18;;;;;;;16.79;44.15;100094.66;4916481;29;20047;-91
2022/03/24 02:24:53;;;;;;;5.55;4.00;;;;;;;16.79;44.08;100097.28;4912460;29;20032;-91
2022/03/24 02:27:19;;;;;;;6.45;4.35;;;;;;;16.79;44.14;100084.09;4911047;29;20047;-92
2022/03/24 02:29:48;;;;;;;5.63;4.40;;;;;;;16.77;44.03;100084.16;4911270;29;20060;-92
2022/03/24 02:32:18;;;;;;;6.40;3.60;;;;;;;16.78;43.92;100093.81;4912203;29;20025;-91
2022/03/24 02:34:47;;;;;;;6.65;4.10;;;;;;;16.77;44.22;100081.50;4908751;29;20036;-91
2022/03/24 02:37:25;;;;;;;5.57;4.07;;;;;;;16.78;44.19;100082.38;4904957;29;20028;-91
2022/03/24 02:39:56;;;;;;;5.00;3.67;;;;;;;16.77;44.04;100080.69;4904492;29;20032;-91
2022/03/24 02:42:25;;;;;;;7.50;4.72;;;;;;;16.77;44.34;100072.78;4903583;29;20028;-91
2022/03/24 02:44:57;;;;;;;6.32;4.32;;;;;;;16.77;44.25;100070.13;4904748;29;20047;-91
2022/03/24 02:47:23;;;;;;;5.85;4.07;;;;;;;16.77;44.19;100072.78;4911535;29;20059;-91
2022/03/24 02:49:53;;;;;;;6.05;4.30;;;;;;;16.76;44.08;100066.63;4911915;29;20036;-91
2022/03/24 02:52:18;;;;;;;7.05;4.53;;;;;;;16.75;44.07;100064.91;4908306;29;20423;-92
2022/03/24 02:54:44;;;;;;;6.22;4.40;;;;;;;16.76;44.22;100068.41;4908115;29;20032;-91
2022/03/24 02:57:11;;;;;;;5.90;3.95;;;;;;;16.76;44.23;100066.63;4910307;29;20048;-91
2022/03/24 02:59:37;;;;;;;6.63;4.05;;;;;;;16.76;44.30;100068.41;4910602;29;20032;-91
2022/03/24 03:02:13;;;;;;;8.05;4.53;;;;;;;16.75;44.54;100061.41;4908037;29;20047;-91
2022/03/24 03:04:40;;;;;;;6.35;4.47;;;;;;;16.76;44.34;100071.06;4909738;29;20044;-92
2022/03/24 03:07:06;;;;;;;6.65;4.50;;;;;;;16.76;44.49;100068.41;4907957;29;20032;-92
2022/03/24 03:09:34;;;;;;;6.10;4.15;;;;;;;16.75;44.36;100062.28;4910000;29;20344;-91
2022/03/24 03:12:00;;;;;;;6.97;4.28;;;;;;;16.75;44.44;100059.63;4909213;29;20485;-92
2022/03/24 03:14:28;;;;;;;6.68;4.60;;;;;;;16.74;44.37;100057.03;4909589;29;20039;-92
2022/03/24 03:16:55;;;;;;;6.60;4.53;;;;;;;16.75;44.51;100054.38;4911192;29;20020;-91
2022/03/24 03:19:22;;;;;;;5.90;4.43;;;;;;;16.75;44.22;100053.50;4911168;29;20027;-91
2022/03/24 03:21:49;;;;;;;6.88;4.22;;;;;;;16.75;44.19;100056.13;4928077;29;20049;-92
2022/03/24 03:24:16;;;;;;;6.78;4.45;;;;;;;16.74;44.42;100049.13;4912079;29;20032;-91
2022/03/24 03:26:42;;;;;;;6.18;4.32;;;;;;;16.76;44.19;100048.16;4912744;29;20060;-92
2022/03/24 03:29:08;;;;;;;6.60;4.47;;;;;;;16.74;44.34;100043.88;4912106;29;20032;-91
2022/03/24 03:31:34;;;;;;;6.30;4.55;;;;;;;16.75;44.36;100040.31;4912255;29;20439;-92
2022/03/24 03:34:02;;;;;;;6.85;4.25;;;;;;;16.74;44.51;100041.22;4911513;29;20039;-91
2022/03/24 03:36:28;;;;;;;6.43;4.50;;;;;;;16.73;44.32;100044.78;4912013;29;20043;-91
2022/03/24 03:38:54;;;;;;;7.20;4.65;;;;;;;16.72;44.43;100046.56;4912728;29;20064;-90
2022/03/24 03:41:22;;;;;;;6.22;4.60;;;;;;;16.74;44.45;100054.41;4911284;29;20043;-91
2022/03/24 03:43:49;;;;;;;7.07;5.00;;;;;;;16.72;44.43;100045.69;4910208;29;20024;-91
2022/03/24 03:46:15;;;;;;;5.32;4.25;;;;;;;16.73;44.38;100050.06;4910173;29;20034;-91
2022/03/24 03:48:42;;;;;;;7.82;4.75;;;;;;;16.72;44.45;100041.31;4911627;29;20039;-92
2022/03/24 03:51:11;;;;;;;6.90;4.88;;;;;;;16.73;44.29;100047.41;4912714;29;20043;-91
2022/03/24 03:53:37;;;;;;;6.25;4.30;;;;;;;16.72;44.43;100043.06;4912895;29;20042;-92
2022/03/24 03:56:04;;;;;;;6.07;4.60;;;;;;;16.72;44.22;100043.06;4913386;29;20028;-91
2022/03/24 03:58:30;;;;;;;7.15;4.95;;;;;;;16.73;44.45;100048.28;4913498;29;20039;-91
2022/03/24 04:00:56;;;;;;;6.47;4.80;;;;;;;16.73;44.24;100052.69;4912721;29;20032;-92
2022/03/24 04:03:30;;;;;;;7.05;4.70;;;;;;;16.73;44.25;100052.69;4910703;29;20073;-91
2022/03/24 04:06:06;;;;;;;8.48;4.47;;;;;;;16.72;44.45;100056.25;4927823;29;20036;-91
2022/03/24 04:08:32;;;;;;;6.90;4.90;;;;;;;16.72;44.39;100045.69;4927430;29;20068;-91
2022/03/24 04:10:59;;;;;;;7.63;4.43;;;;;;;16.72;44.46;100045.69;4910877;29;20143;-91
2022/03/24 04:13:24;;;;;;;7.63;5.13;;;;;;;16.72;44.38;100053.59;4910565;29;20089;-90
2022/03/24 04:15:52;;;;;;;6.70;4.57;;;;;;;16.73;44.52;100053.56;4912355;29;20032;-92
2022/03/24 04:18:18;;;;;;;5.88;4.40;;;;;;;16.72;44.36;100050.97;4914509;29;20048;-91
2022/03/24 04:20:45;;;;;;;6.63;4.95;;;;;;;16.73;44.36;100047.41;4915337;29;20039;-91
2022/03/24 04:23:11;;;;;;;6.88;4.72;;;;;;;16.70;44.30;100045.75;4910122;29;20347;-90
2022/03/24 04:25:38;;;;;;;7.30;4.72;;;;;;;16.69;44.53;100049.31;4911943;29;20036;-91
2022/03/24 04:28:04;;;;;;;6.90;4.80;;;;;;;16.72;44.51;100046.56;4915999;29;20032;-91
2022/03/24 04:30:31;;;;;;;6.43;4.90;;;;;;;16.72;44.60;100053.59;4917287;29;20071;-91
2022/03/24 04:32:56;;;;;;;7.13;4.97;;;;;;;16.72;44.33;100045.69;4931769;29;20088;-92
2022/03/24 04:35:22;;;;;;;6.97;4.40;;;;;;;16.71;44.40;100050.09;4916933;29;20097;-91
2022/03/24 04:37:49;;;;;;;6.20;4.57;;;;;;;16.71;44.50;100049.25;4922439;29;20086;-92
2022/03/24 04:40:16;;;;;;;7.32;5.07;;;;;;;16.72;44.59;100050.97;4924481;29;20113;-90
2022/03/24 04:42:44;;;;;;;7.07;4.78;;;;;;;16.71;44.52;100049.25;4923794;29;20032;-91
2022/03/24 04:45:10;;;;;;;6.38;4.75;;;;;;;16.69;44.68;100051.06;4922480;29;20076;-91
2022/03/24 04:47:37;;;;;;;6.78;5.00;;;;;;;16.71;44.56;100059.81;4924201;29;20024;-91
2022/03/24 04:50:04;;;;;;;6.32;4.72;;;;;;;16.71;44.44;100057.16;4923551;29;20036;-91
2022/03/24 04:52:30;;;;;;;7.07;5.03;;;;;;;16.72;44.45;100056.25;4920373;29;20037;-92
2022/03/24 04:54:59;;;;;;;6.32;4.90;;;;;;;16.71;44.42;100059.81;4919457;29;20040;-91
2022/03/24 04:57:25;;;;;;;6.32;4.38;;;;;;;16.71;44.47;100065.06;4919395;29;20063;-91
2022/03/24 04:59:51;;;;;;;7.78;5.38;;;;;;;16.69;44.50;100062.47;4917997;29;20034;-91
2022/03/24 05:02:17;;;;;;;8.32;4.63;;;;;;;16.70;44.66;100056.28;4918385;29;20095;-91
2022/03/24 05:04:43;;;;;;;6.80;4.47;;;;;;;16.70;44.27;100064.19;4919014;29;20039;-91
2022/03/24 05:07:12;;;;;;;7.10;5.18;;;;;;;16.69;44.46;100054.56;4902989;29;20040;-92
2022/03/24 05:09:38;;;;;;;6.82;5.10;;;;;;;16.69;44.61;100062.47;4916203;29;20042;-91
2022/03/24 05:12:05;;;;;;;6.78;4.60;;;;;;;16.69;44.63;100061.59;4917738;29;20032;-91
2022/03/24 05:14:32;;;;;;;6.10;4.57;;;;;;;16.69;44.41;100056.34;4916770;29;20036;-91
2022/03/24 05:17:03;;;;;;;8.20;5.30;;;;;;;16.70;44.60;100058.09;4918613;29;20035;-91
2022/03/24 05:19:31;;;;;;;6.25;5.00;;;;;;;16.71;44.45;100060.63;4917236;29;20067;-91
2022/03/24 05:21:57;;;;;;;5.60;4.45;;;;;;;16.71;44.33;100065.91;4918324;29;20111;-92
2022/03/24 05:24:23;;;;;;;6.03;4.80;;;;;;;16.69;44.41;100061.59;4915614;29;20104;-91
2022/03/24 05:26:48;;;;;;;6.63;4.72;;;;;;;16.69;44.37;100058.97;4933090;29;20028;-92
2022/03/24 05:29:14;;;;;;;5.72;4.47;;;;;;;16.70;44.51;100064.19;4915806;29;20079;-91
2022/03/24 05:31:40;;;;;;;6.13;4.65;;;;;;;16.70;44.60;100068.63;4916737;29;20043;-92
2022/03/24 05:34:05;;;;;;;6.15;4.65;;;;;;;16.69;44.49;100066.88;4914540;29;20031;-91
2022/03/24 05:36:31;;;;;;;6.20;4.82;;;;;;;16.69;44.42;100067.75;4909940;29;20039;-91
2022/03/24 05:38:57;;;;;;;5.60;4.55;;;;;;;16.70;44.72;100068.63;4911671;29;20028;-91
2022/03/24 05:41:24;;;;;;;7.60;5.07;;;;;;;16.70;44.50;100071.25;4910039;29;20120;-91
2022/03/24 05:44:04;;;;;;;7.50;5.22;;;;;;;16.70;44.67;100080.00;4908379;29;20108;-91
2022/03/24 05:46:35;;;;;;;6.40;4.90;;;;;;;16.71;44.51;100078.25;4906463;29;20042;-91
2022/03/24 05:49:03;;;;;;;6.75;4.75;;;;;;;16.69;44.69;100078.28;4905660;29;20090;-90
2022/03/24 05:51:29;;;;;;;7.20;4.93;;;;;;;16.69;44.67;100082.69;4906240;29;20054;-90
2022/03/24 05:53:54;;;;;;;6.70;5.03;;;;;;;16.69;44.60;100086.19;4907754;29;20024;-91
2022/03/24 05:56:20;;;;;;;6.20;4.65;;;;;;;16.69;44.52;100077.41;4911553;29;20043;-92
2022/03/24 05:58:46;;;;;;;7.20;4.63;;;;;;;16.69;44.46;100082.69;4914556;29;20117;-92
2022/03/24 06:01:15;;;;;;;7.88;4.85;;;;;;;16.69;44.70;100087.97;4912838;29;20024;-91
2022/03/24 06:03:44;;;;;;;5.97;4.53;;;;;;;16.69;44.62;100087.97;4912341;29;20032;-91
2022/03/24 06:06:10;;;;;;;6.32;4.80;;;;;;;16.69;44.62;100087.97;4909364;29;20044;-91
2022/03/24 06:08:36;;;;;;;8.27;4.90;;;;;;;16.69;44.84;100082.69;4911400;29;20185;-89
2022/03/24 06:11:04;;;;;;;6.20;4.82;;;;;;;16.69;44.58;100082.69;4904314;29;20027;-90
2022/03/24 06:13:30;;;;;;;6.72;4.80;;;;;;;16.70;44.63;100085.28;4905506;29;20385;-89
2022/03/24 06:15:55;;;;;;;7.00;4.72;;;;;;;16.69;44.61;100082.69;4905682;29;20039;-89
2022/03/24 06:18:21;;;;;;;7.00;4.82;;;;;;;16.70;44.65;100092.34;4905119;29;20052;-89
2022/03/24 06:20:47;;;;;;;6.20;4.70;;;;;;;16.70;44.51;100084.44;4905843;29;20414;-92
2022/03/24 06:23:15;;;;;;;7.30;4.68;;;;;;;16.69;44.74;100087.97;4932155;29;20064;-92
2022/03/24 06:25:42;;;;;;;6.35;5.03;;;;;;;16.69;44.66;100087.97;4876716;29;20032;-91
2022/03/24 06:28:08;;;;;;;6.70;5.20;;;;;;;16.70;44.51;100087.06;4905852;29;20027;-89
2022/03/24 06:30:34;;;;;;;6.30;4.38;;;;;;;16.71;44.68;100086.16;4904647;29;20039;-89
2022/03/24 06:33:00;;;;;;;7.03;4.75;;;;;;;16.68;44.52;100088.88;4906877;29;20032;-90
2022/03/24 06:35:26;;;;;;;5.90;4.78;;;;;;;16.71;44.71;100094.06;4912941;29;20023;-92
2022/03/24 06:37:52;;;;;;;5.20;4.32;;;;;;;16.70;44.66;100100.25;4917087;29;20028;-91
2022/03/24 06:40:19;;;;;;;7.68;5.68;;;;;;;16.70;44.80;100097.63;4902558;29;20032;-91
2022/03/24 06:42:45;;;;;;;7.43;5.00;;;;;;;16.71;44.77;100097.53;4906864;29;20024;-90
2022/03/24 06:45:12;;;;;;;6.88;5.38;;;;;;;16.73;44.87;100100.13;4904353;29;20043;-89
2022/03/24 06:47:39;;;;;;;6.57;5.10;;;;;;;16.72;44.72;100103.69;4905887;29;20024;-91
2022/03/24 06:50:06;;;;;;;6.60;5.20;;;;;;;16.72;44.67;100098.41;4907863;29;20052;-90
2022/03/24 06:52:31;;;;;;;6.93;4.75;;;;;;;16.72;44.83;100093.13;4906864;29;20062;-89
2022/03/24 06:54:57;;;;;;;7.30;5.18;;;;;;;16.72;44.75;100093.13;4930252;29;20371;-91
2022/03/24 06:57:23;;;;;;;6.28;4.90;;;;;;;16.74;44.75;100101.84;4915062;29;20096;-91
2022/03/24 06:59:48;;;;;;;7.93;5.28;;;;;;;16.74;44.64;100107.13;4916554;29;20039;-91
2022/03/24 07:02:15;;;;;;;6.63;5.20;;;;;;;16.74;44.61;100102.72;4916930;29;20047;-92
2022/03/24 07:04:41;;;;;;;6.03;4.75;;;;;;;16.76;44.80;100107.94;4934855;29;20035;-92
2022/03/24 07:07:07;;;;;;;7.30;5.18;;;;;;;16.75;44.97;100114.09;4917086;29;20020;-91
2022/03/24 07:09:32;;;;;;;7.20;5.30;;;;;;;16.74;44.59;100108.00;4918536;29;20036;-91
2022/03/24 07:11:58;;;;;;;7.13;5.00;;;;;;;16.77;44.87;100109.66;4918365;29;20035;-91
2022/03/24 07:14:24;;;;;;;8.23;5.53;;;;;;;16.76;44.79;100111.44;4916065;29;20041;-91
2022/03/24 07:16:51;;;;;;;9.05;5.15;;;;;;;16.78;44.73;100108.75;4913153;29;20024;-91
2022/03/24 07:19:19;;;;;;;7.60;5.10;;;;;;;16.78;44.63;100108.75;4914325;29;20028;-91
2022/03/24 07:21:45;;;;;;;7.22;5.35;;;;;;;16.79;44.69;100110.47;4917426;29;20032;-91
2022/03/24 07:24:10;;;;;;;6.80;5.57;;;;;;;16.77;44.76;100107.03;4916687;29;20115;-90
2022/03/24 07:26:36;;;;;;;7.10;5.15;;;;;;;16.78;44.84;100103.47;4914435;29;20031;-92
2022/03/24 07:29:02;;;;;;;8.82;6.07;;;;;;;16.80;44.88;100103.44;4909613;29;20028;-91
2022/03/24 07:31:28;;;;;;;6.45;5.35;;;;;;;16.80;44.92;100117.44;4908197;29;20031;-91
2022/03/24 07:33:56;;;;;;;6.80;5.13;;;;;;;16.80;44.89;100111.34;4933281;29;20039;-93
2022/03/24 07:36:22;;;;;;;7.30;5.07;;;;;;;16.81;44.81;100108.66;4913263;29;20017;-92
2022/03/24 07:38:52;;;;;;;7.40;5.60;;;;;;;16.82;44.80;100120.91;4911237;29;20059;-92
2022/03/24 07:41:22;;;;;;;6.95;5.40;;;;;;;16.83;44.94;100121.75;4923621;29;20016;-94
2022/03/24 07:43:49;;;;;;;7.90;5.53;;;;;;;16.83;44.66;100112.09;4960030;23;20045;-94
2022/03/24 07:46:14;;;;;;;8.27;5.57;;;;;;;16.84;44.67;100113.81;4980438;28;20023;-92
2022/03/24 07:48:51;;;;;;;6.72;5.13;;;;;;;16.85;44.87;100119.97;4972280;28;20019;-92
2022/03/24 07:55:21;;;;;;;6.13;4.88;;;;;;;16.86;44.84;100127.78;4992597;28;20030;-93
2022/03/24 08:04:55;;;;;;;8.32;6.05;;;;;;;16.88;44.83;100115.44;4993979;28;20038;-92
2022/03/24 08:07:27;;;;;;;7.28;5.72;;;;;;;16.89;44.83;100130.34;4960677;28;20057;-93
2022/03/24 08:10:00;;;;;;;7.03;5.70;;;;;;;16.89;45.16;100127.72;4997517;28;20058;-91
2022/03/24 08:12:53;;;;;;;7.80;5.93;;;;;;;16.92;44.93;100138.13;4996988;28;20049;-91
2022/03/24 08:18:47;;;;;;;7.22;5.35;;;;;;;16.94;45.00;100131.97;4997655;28;20053;-93
2022/03/24 08:21:18;;;;;;;6.68;4.93;;;;;;;16.96;45.04;100133.66;5001126;28;20034;-92
2022/03/24 08:23:46;;;;;;;7.07;5.88;;;;;;;16.95;45.16;100126.63;4983175;28;20023;-92
2022/03/24 08:26:18;;;;;;;9.20;5.75;;;;;;;16.97;45.06;100137.13;4998674;28;20027;-93
2022/03/24 08:29:02;;;;;;;6.88;5.50;;;;;;;16.98;45.01;100138.84;4983473;28;20030;-92
2022/03/24 08:31:28;;;;;;;8.45;5.88;;;;;;;16.99;44.97;100132.66;4983171;28;20054;-92
2022/03/24 08:33:58;;;;;;;7.28;5.05;;;;;;;16.99;45.25;100137.94;4962186;28;20042;-92
2022/03/24 08:50:02;;;;;;;8.40;5.55;;;;;;;17.04;44.82;100159.75;4995904;28;20041;-93
2022/03/24 08:52:55;;;;;;;6.35;5.43;;;;;;;17.06;45.13;100150.06;4980519;28;20070;-93
2022/03/24 08:55:29;;;;;;;7.43;6.18;;;;;;;17.08;45.19;100152.59;4981989;28;20031;-93
2022/03/24 08:57:56;;;;;;;7.75;5.68;;;;;;;17.07;45.33;100141.22;4996790;28;20043;-92
2022/03/24 09:00:29;;;;;;;7.80;5.70;;;;;;;17.08;45.42;100148.22;4981586;28;20058;-92
2022/03/24 09:03:05;;;;;;;7.57;5.93;;;;;;;17.10;45.30;100146.38;4981408;28;20018;-92
2022/03/24 09:05:38;;;;;;;7.88;5.68;;;;;;;17.10;45.65;100135.81;4980488;28;20101;-91
2022/03/24 09:08:06;;;;;;;7.03;5.28;;;;;;;17.12;45.75;100143.69;4983863;28;20034;-93
2022/03/24 09:10:43;;;;;;;7.45;5.85;;;;;;;17.13;45.68;100146.28;4985281;28;20023;-92
2022/03/24 09:13:26;;;;;;;8.80;5.60;;;;;;;17.12;46.03;100149.84;5000271;28;20049;-92
2022/03/24 09:15:56;;;;;;;7.05;5.80;;;;;;;17.13;45.85;100141.00;5000813;28;20070;-92
2022/03/24 09:18:22;;;;;;;7.68;5.85;;;;;;;17.16;45.51;100140.88;4985232;28;20072;-92
2022/03/24 09:23:51;;;;;;;8.05;5.90;;;;;;;17.18;45.77;100149.63;4987159;28;20040;-93
2022/03/24 09:26:20;;;;;;;7.95;6.20;;;;;;;17.20;46.11;100146.06;4983057;28;20027;-92
2022/03/24 09:29:31;;;;;;;7.55;5.40;;;;;;;17.23;45.75;100131.00;4967424;28;20019;-91
2022/03/24 09:32:00;;;;;;;8.70;6.40;;;;;;;17.25;45.60;100138.88;4985033;28;20039;-93
2022/03/24 09:34:34;;;;;;;8.68;6.05;;;;;;;17.26;45.99;100137.94;4999010;28;20038;-94
2022/03/24 09:37:36;;;;;;;8.60;6.43;;;;;;;17.27;45.31;100134.38;4977155;28;20050;-94
2022/03/24 09:40:09;;;;;;;7.65;5.43;;;;;;;17.29;45.72;100141.34;4983379;28;20023;-93
2022/03/24 09:42:38;;;;;;;7.43;5.15;;;;;;;17.31;45.55;100138.66;4984959;28;20047;-94
2022/03/24 09:45:10;;;;;;;8.77;5.40;;;;;;;17.32;45.45;100143.00;4983503;28;20022;-95
2022/03/24 09:51:24;;;;;;;8.02;5.43;;;;;;;17.35;45.31;100140.28;4982521;28;20058;-93
2022/03/24 09:53:55;;;;;;;7.63;4.95;;;;;;;17.37;45.49;100138.44;4965786;28;20035;-93
2022/03/24 09:56:30;;;;;;;7.32;5.75;;;;;;;17.42;45.80;100141.78;4982028;28;20031;-93
2022/03/24 09:59:00;;;;;;;7.88;5.95;;;;;;;17.42;45.30;100146.19;4979086;28;20091;-93
2022/03/24 10:01:30;;;;;;;6.78;5.53;;;;;;;17.43;45.74;100140.88;4978509;28;20027;-93
2022/03/24 10:04:09;;;;;;;7.90;5.50;;;;;;;17.44;45.30;100139.94;4950022;28;20023;-93
2022/03/24 10:07:01;;;;;;;9.05;5.75;;;;;;;17.44;45.38;100142.56;4979995;28;20034;-93
2022/03/24 10:13:02;;;;;;;8.48;5.80;;;;;;;17.50;45.36;100143.28;4981845;28;20046;-93
2022/03/24 10:15:41;;;;;;;8.45;5.28;;;;;;;17.50;45.21;100143.28;4979382;28;20019;-91
2022/03/24 10:18:40;;;;;;;7.57;5.63;;;;;;;17.51;45.08;100139.72;4963193;28;20047;-91
2022/03/24 10:21:13;;;;;;;7.72;5.57;;;;;;;17.53;45.39;100148.47;4980191;28;20023;-92
2022/03/24 10:23:45;;;;;;;7.68;5.30;;;;;;;17.53;45.34;100144.03;4964139;28;20023;-93
2022/03/24 10:26:38;;;;;;;7.70;5.45;;;;;;;17.56;45.38;100140.41;4965113;28;20046;-91
2022/03/24 10:29:04;;;;;;;8.10;5.93;;;;;;;17.58;45.43;100146.53;4949003;28;20103;-92
2022/03/24 10:31:41;;;;;;;6.88;5.25;;;;;;;17.59;45.21;100148.25;4980199;28;20019;-93
2022/03/24 10:34:09;;;;;;;6.90;5.10;;;;;;;17.61;45.51;100151.69;4964366;28;20027;-91
2022/03/24 10:37:06;;;;;;;7.30;5.78;;;;;;;17.62;45.28;100142.84;4964952;28;20011;-90
2022/03/24 10:40:14;;;;;;;7.32;5.10;;;;;;;17.62;45.30;100137.56;4981281;28;20015;-92
2022/03/24 10:46:54;;;;;;;7.75;5.03;;;;;;;17.65;45.35;100136.59;5157831;27;20402;-93
2022/03/24 10:49:23;;;;;;;8.25;5.65;;;;;;;17.68;45.52;100136.50;5139477;28;20016;-93
2022/03/24 10:52:03;;;;;;;7.55;5.43;;;;;;;17.67;45.30;100130.34;5157168;27;20019;-94
2022/03/24 10:54:53;;;;;;;7.60;5.18;;;;;;;17.70;45.31;100130.25;5136444;28;20020;-93
2022/03/24 10:57:24;;;;;;;7.82;5.10;;;;;;;17.72;45.39;100132.81;5139358;28;20031;-94
2022/03/24 11:00:05;;;;;;;7.28;5.53;;;;;;;17.71;45.14;100116.13;5156610;27;20092;-93
2022/03/24 11:02:33;;;;;;;6.90;5.35;;;;;;;17.75;45.42;100121.28;5124351;27;20019;-94
2022/03/24 11:05:14;;;;;;;7.22;5.05;;;;;;;17.75;45.29;100121.28;5139150;27;20113;-94
2022/03/24 11:07:50;;;;;;;7.63;5.50;;;;;;;17.76;45.58;100133.53;5139781;28;20018;-92
2022/03/24 11:10:16;;;;;;;;;;;;;;;17.76;45.51;100128.28;5123006;27;20031;-94
2022/03/24 11:16:08;;;;;;;9.10;6.25;;;;;;;17.79;45.45;100121.13;5115085;28;20084;-94
2022/03/24 11:18:34;;;;;;;6.88;5.32;;;;;;;17.82;45.32;100122.78;5114801;28;20032;-94
2022/03/24 11:24:30;;;;;;;6.38;5.10;;;;;;;17.84;45.43;100105.09;5114583;28;20054;-94
2022/03/24 11:26:58;;;;;;;7.82;5.88;;;;;;;17.86;45.70;100097.97;5098104;28;20028;-94
2022/03/24 11:29:35;;;;;;;8.93;5.65;;;;;;;17.86;45.28;100105.91;5114387;28;20032;-93
2022/03/24 11:42:24;;;;;;;7.25;4.82;;;;;;;17.91;45.50;100101.31;5074061;28;20075;-93
2022/03/24 11:45:07;;;;;;;7.88;5.53;;;;;;;17.94;45.12;100098.56;5088987;28;20040;-94
2022/03/24 11:48:03;;;;;;;7.13;5.18;;;;;;;17.95;45.55;100102.06;5097774;28;20064;-94
2022/03/24 11:50:55;;;;;;;7.53;5.30;;;;;;;17.98;45.39;100101.94;5089534;28;20020;-93
2022/03/24 11:57:32;;;;;;;8.20;5.15;;;;;;;18.02;45.35;100094.75;5085333;28;20047;-95
2022/03/24 12:00:26;;;;;;;9.25;4.97;;;;;;;18.03;45.45;100089.44;5063996;28;20402;-94
2022/03/24 12:02:53;;;;;;;6.70;4.65;;;;;;;18.06;45.31;100085.84;5080386;28;20021;-95
2022/03/24 12:05:28;;;;;;;7.00;4.70;;;;;;;18.07;45.33;100090.22;5080610;28;20028;-95
2022/03/24 12:14:48;;;;;;;7.63;5.07;;;;;;;18.12;45.31;100082.97;5080721;28;20052;-95
2022/03/24 12:17:34;;;;;;;7.00;5.00;;;;;;;18.12;45.48;100077.69;5065519;28;20082;-95
2022/03/24 12:20:20;;;;;;;6.50;4.90;;;;;;;18.12;45.29;100072.41;5080497;28;20018;-96
2022/03/24 12:22:50;;;;;;;6.88;4.68;;;;;;;18.15;45.32;100074.91;5080536;28;20068;-94
2022/03/24 12:32:06;;;;;;;7.55;4.93;;;;;;;18.19;45.47;100068.59;5039780;28;20057;-94
2022/03/24 12:37:58;;;;;;;7.18;4.75;;;;;;;18.21;45.30;100047.41;5048893;28;20098;-94
2022/03/24 12:47:44;;;;;;;6.85;4.75;;;;;;;18.27;45.50;100054.22;5094219;28;20071;-94
2022/03/24 12:50:41;;;;;;;6.72;4.60;;;;;;;18.27;45.31;100036.59;5098462;28;20024;-96
2022/03/24 12:53:10;;;;;;;;;;;;;;;18.26;45.53;100026.94;5099935;28;20009;-94
2022/03/24 12:55:45;;;;;;;6.53;4.75;;;;;;;18.29;45.65;100028.56;5104615;28;19935;-94
2022/03/24 12:58:30;;;;;;;6.90;4.95;;;;;;;18.30;45.29;100030.31;5119847;28;20033;-94
2022/03/24 13:00:57;;;;;;;9.18;4.68;;;;;;;18.31;45.56;100034.69;5136972;27;20008;-94
2022/03/24 13:03:25;;;;;;;6.38;4.85;;;;;;;18.34;45.27;100029.25;5102869;28;20059;-93
2022/03/24 13:05:54;;;;;;;6.18;4.80;;;;;;;18.36;45.30;100033.56;5136387;28;20020;-93